sensor_id;sensor_type;location;lat;lon;timestamp;temperature;humidity
54960;DHT22;40860;51.710;8.736;2022-12-11T00:02:04;-0.20;99.70
54960;DHT22;40860;51.710;8.736;2022-12-11T00:06:16;-0.10;99.80
54960;DHT22;40860;51.710;8.736;2022-12-11T00:10:21;-0.10;99.80
54960;DHT22;40860;51.710;8.736;2022-12-11T00:14:25;-0.20;99.70
54960;DHT22;40860;51.710;8.736;2022-12-11T00:18:28;-0.10;99.60
54960;DHT22;40860;51.710;8.736;2022-12-11T00:22:31;-0.10;99.80
54960;DHT22;40860;51.710;8.736;2022-12-11T00:26:35;-0.20;99.60
54960;DHT22;40860;51.710;8.736;2022-12-11T00:30:40;-0.10;99.70
54960;DHT22;40860;51.710;8.736;2022-12-11T00:34:43;-0.10;99.80
54960;DHT22;40860;51.710;8.736;2022-12-11T00:38:47;-0.10;99.70
54960;DHT22;40860;51.710;8.736;2022-12-11T00:42:51;-0.10;99.70
54960;DHT22;40860;51.710;8.736;2022-12-11T00:46:54;-0.10;99.80
54960;DHT22;40860;51.710;8.736;2022-12-11T00:50:58;-0.10;99.80
54960;DHT22;40860;51.710;8.736;2022-12-11T00:55:00;-0.10;99.80
54960;DHT22;40860;51.710;8.736;2022-12-11T00:59:05;-0.10;99.80
54960;DHT22;40860;51.710;8.736;2022-12-11T01:03:08;-0.10;99.90
54960;DHT22;40860;51.710;8.736;2022-12-11T01:07:11;-0.10;99.90
54960;DHT22;40860;51.710;8.736;2022-12-11T01:11:15;-0.10;99.90
54960;DHT22;40860;51.710;8.736;2022-12-11T01:15:21;-0.10;99.90
54960;DHT22;40860;51.710;8.736;2022-12-11T01:19:24;-0.10;99.90
54960;DHT22;40860;51.710;8.736;2022-12-11T01:23:27;-0.10;99.90
54960;DHT22;40860;51.710;8.736;2022-12-11T01:27:31;-0.10;99.90
54960;DHT22;40860;51.710;8.736;2022-12-11T01:31:35;0.00;99.90
54960;DHT22;40860;51.710;8.736;2022-12-11T01:35:38;-0.10;99.90
54960;DHT22;40860;51.710;8.736;2022-12-11T01:39:41;-0.10;99.90
54960;DHT22;40860;51.710;8.736;2022-12-11T01:44:00;-0.10;99.90
54960;DHT22;40860;51.710;8.736;2022-12-11T01:48:08;-0.10;99.90
54960;DHT22;40860;51.710;8.736;2022-12-11T01:52:17;-0.10;99.90
54960;DHT22;40860;51.710;8.736;2022-12-11T01:56:21;0.00;99.90
54960;DHT22;40860;51.710;8.736;2022-12-11T02:00:24;0.00;99.90
54960;DHT22;40860;51.710;8.736;2022-12-11T02:04:30;0.00;99.90
54960;DHT22;40860;51.710;8.736;2022-12-11T02:08:36;0.00;99.90
54960;DHT22;40860;51.710;8.736;2022-12-11T02:12:47;0.00;99.90
54960;DHT22;40860;51.710;8.736;2022-12-11T02:16:56;0.00;99.90
54960;DHT22;40860;51.710;8.736;2022-12-11T02:21:07;0.00;99.90
54960;DHT22;40860;51.710;8.736;2022-12-11T02:25:15;-0.10;99.90
54960;DHT22;40860;51.710;8.736;2022-12-11T02:29:29;-0.10;99.90
54960;DHT22;40860;51.710;8.736;2022-12-11T02:33:39;-0.10;99.90
54960;DHT22;40860;51.710;8.736;2022-12-11T02:37:44;-0.20;99.90
54960;DHT22;40860;51.710;8.736;2022-12-11T02:41:49;-0.20;99.90
54960;DHT22;40860;51.710;8.736;2022-12-11T02:45:54;-0.20;99.90
54960;DHT22;40860;51.710;8.736;2022-12-11T02:50:00;-0.20;99.90
54960;DHT22;40860;51.710;8.736;2022-12-11T02:54:09;-0.20;99.90
54960;DHT22;40860;51.710;8.736;2022-12-11T02:58:17;-0.10;99.90
54960;DHT22;40860;51.710;8.736;2022-12-11T03:02:22;-0.20;99.90
54960;DHT22;40860;51.710;8.736;2022-12-11T03:06:28;-0.20;99.90
54960;DHT22;40860;51.710;8.736;2022-12-11T03:10:33;-0.10;99.90
54960;DHT22;40860;51.710;8.736;2022-12-11T03:14:37;-0.10;99.90
54960;DHT22;40860;51.710;8.736;2022-12-11T03:18:49;-0.10;99.90
54960;DHT22;40860;51.710;8.736;2022-12-11T03:22:59;-0.10;99.90
54960;DHT22;40860;51.710;8.736;2022-12-11T03:27:10;-0.10;99.90
54960;DHT22;40860;51.710;8.736;2022-12-11T03:31:20;0.00;99.90
54960;DHT22;40860;51.710;8.736;2022-12-11T03:35:28;0.00;99.90
54960;DHT22;40860;51.710;8.736;2022-12-11T03:39:35;0.00;99.90
54960;DHT22;40860;51.710;8.736;2022-12-11T03:43:40;0.00;99.90
54960;DHT22;40860;51.710;8.736;2022-12-11T03:47:44;0.00;99.90
54960;DHT22;40860;51.710;8.736;2022-12-11T03:51:50;-0.10;99.90
54960;DHT22;40860;51.710;8.736;2022-12-11T03:55:56;0.00;99.90
54960;DHT22;40860;51.710;8.736;2022-12-11T04:00:00;0.00;99.90
54960;DHT22;40860;51.710;8.736;2022-12-11T04:04:12;0.00;99.90
54960;DHT22;40860;51.710;8.736;2022-12-11T04:08:17;0.00;99.90
54960;DHT22;40860;51.710;8.736;2022-12-11T04:12:21;0.10;99.90
54960;DHT22;40860;51.710;8.736;2022-12-11T04:16:24;0.10;99.90
54960;DHT22;40860;51.710;8.736;2022-12-11T04:20:27;0.10;99.90
54960;DHT22;40860;51.710;8.736;2022-12-11T04:24:49;0.10;99.90
54960;DHT22;40860;51.710;8.736;2022-12-11T04:28:52;0.10;99.90
54960;DHT22;40860;51.710;8.736;2022-12-11T04:32:55;0.10;99.90
54960;DHT22;40860;51.710;8.736;2022-12-11T04:36:58;0.10;99.90
54960;DHT22;40860;51.710;8.736;2022-12-11T04:41:06;0.10;99.90
54960;DHT22;40860;51.710;8.736;2022-12-11T04:45:10;0.20;99.90
54960;DHT22;40860;51.710;8.736;2022-12-11T04:49:13;0.20;99.90
54960;DHT22;40860;51.710;8.736;2022-12-11T04:53:16;0.20;99.90
54960;DHT22;40860;51.710;8.736;2022-12-11T04:57:20;0.20;99.90
54960;DHT22;40860;51.710;8.736;2022-12-11T05:01:23;0.20;99.90
54960;DHT22;40860;51.710;8.736;2022-12-11T05:05:26;0.20;99.90
54960;DHT22;40860;51.710;8.736;2022-12-11T05:09:29;0.20;99.90
54960;DHT22;40860;51.710;8.736;2022-12-11T05:13:33;0.20;99.90
54960;DHT22;40860;51.710;8.736;2022-12-11T05:17:36;0.30;99.90
54960;DHT22;40860;51.710;8.736;2022-12-11T05:21:39;0.30;99.90
54960;DHT22;40860;51.710;8.736;2022-12-11T05:25:43;0.20;99.90
54960;DHT22;40860;51.710;8.736;2022-12-11T05:29:54;0.30;99.90
54960;DHT22;40860;51.710;8.736;2022-12-11T05:34:00;0.30;99.90
54960;DHT22;40860;51.710;8.736;2022-12-11T05:38:04;0.30;99.90
54960;DHT22;40860;51.710;8.736;2022-12-11T05:42:07;0.30;99.90
54960;DHT22;40860;51.710;8.736;2022-12-11T05:46:12;0.40;99.90
54960;DHT22;40860;51.710;8.736;2022-12-11T05:50:16;0.40;99.90
54960;DHT22;40860;51.710;8.736;2022-12-11T05:54:19;0.40;99.90
54960;DHT22;40860;51.710;8.736;2022-12-11T05:58:22;0.40;99.90
54960;DHT22;40860;51.710;8.736;2022-12-11T06:02:26;0.40;99.90
54960;DHT22;40860;51.710;8.736;2022-12-11T06:06:29;0.40;99.90
54960;DHT22;40860;51.710;8.736;2022-12-11T06:10:33;0.40;99.90
54960;DHT22;40860;51.710;8.736;2022-12-11T06:14:35;0.40;99.90
54960;DHT22;40860;51.710;8.736;2022-12-11T06:18:42;0.40;99.90
54960;DHT22;40860;51.710;8.736;2022-12-11T06:22:46;0.50;99.90
54960;DHT22;40860;51.710;8.736;2022-12-11T06:26:48;0.40;99.90
54960;DHT22;40860;51.710;8.736;2022-12-11T06:30:51;0.50;99.90
54960;DHT22;40860;51.710;8.736;2022-12-11T06:34:56;0.40;99.90
54960;DHT22;40860;51.710;8.736;2022-12-11T06:38:58;0.50;99.90
54960;DHT22;40860;51.710;8.736;2022-12-11T06:43:01;0.50;99.90
54960;DHT22;40860;51.710;8.736;2022-12-11T06:47:04;0.50;99.90
54960;DHT22;40860;51.710;8.736;2022-12-11T06:51:10;0.50;99.90
54960;DHT22;40860;51.710;8.736;2022-12-11T06:55:14;0.40;99.90
54960;DHT22;40860;51.710;8.736;2022-12-11T06:59:17;0.40;99.90
54960;DHT22;40860;51.710;8.736;2022-12-11T07:03:20;0.40;99.90
54960;DHT22;40860;51.710;8.736;2022-12-11T07:07:24;0.40;99.90
54960;DHT22;40860;51.710;8.736;2022-12-11T07:11:27;0.40;99.90
54960;DHT22;40860;51.710;8.736;2022-12-11T07:15:35;0.50;99.90
54960;DHT22;40860;51.710;8.736;2022-12-11T07:19:41;0.40;99.90
54960;DHT22;40860;51.710;8.736;2022-12-11T07:23:46;0.40;99.90
54960;DHT22;40860;51.710;8.736;2022-12-11T07:27:49;0.40;99.90
54960;DHT22;40860;51.710;8.736;2022-12-11T07:31:52;0.40;99.90
54960;DHT22;40860;51.710;8.736;2022-12-11T07:35:55;0.40;99.90
54960;DHT22;40860;51.710;8.736;2022-12-11T07:39:59;0.40;99.90
54960;DHT22;40860;51.710;8.736;2022-12-11T07:44:03;0.40;99.90
54960;DHT22;40860;51.710;8.736;2022-12-11T07:48:05;0.40;99.90
54960;DHT22;40860;51.710;8.736;2022-12-11T07:52:08;0.40;99.90
54960;DHT22;40860;51.710;8.736;2022-12-11T07:56:13;0.40;99.90
54960;DHT22;40860;51.710;8.736;2022-12-11T08:00:16;0.40;99.90
54960;DHT22;40860;51.710;8.736;2022-12-11T08:04:19;0.40;99.90
54960;DHT22;40860;51.710;8.736;2022-12-11T08:08:22;0.40;99.90
54960;DHT22;40860;51.710;8.736;2022-12-11T08:12:26;0.40;99.90
54960;DHT22;40860;51.710;8.736;2022-12-11T08:16:29;0.40;99.90
54960;DHT22;40860;51.710;8.736;2022-12-11T08:20:33;0.40;99.90
54960;DHT22;40860;51.710;8.736;2022-12-11T08:24:36;0.40;99.90
54960;DHT22;40860;51.710;8.736;2022-12-11T08:28:40;0.40;99.90
54960;DHT22;40860;51.710;8.736;2022-12-11T08:32:44;0.40;99.90
54960;DHT22;40860;51.710;8.736;2022-12-11T08:36:47;0.50;99.90
54960;DHT22;40860;51.710;8.736;2022-12-11T08:40:50;0.50;99.90
54960;DHT22;40860;51.710;8.736;2022-12-11T08:44:54;0.50;99.90
54960;DHT22;40860;51.710;8.736;2022-12-11T08:48:58;0.50;99.90
54960;DHT22;40860;51.710;8.736;2022-12-11T08:53:01;0.50;99.90
54960;DHT22;40860;51.710;8.736;2022-12-11T08:57:04;0.50;99.90
54960;DHT22;40860;51.710;8.736;2022-12-11T09:01:10;0.50;99.90
54960;DHT22;40860;51.710;8.736;2022-12-11T09:05:13;0.50;99.90
54960;DHT22;40860;51.710;8.736;2022-12-11T09:09:16;0.50;99.90
54960;DHT22;40860;51.710;8.736;2022-12-11T09:13:20;0.50;99.90
54960;DHT22;40860;51.710;8.736;2022-12-11T09:17:24;0.50;99.90
54960;DHT22;40860;51.710;8.736;2022-12-11T09:21:29;0.50;99.90
54960;DHT22;40860;51.710;8.736;2022-12-11T09:25:32;0.50;99.90
54960;DHT22;40860;51.710;8.736;2022-12-11T09:29:35;0.50;99.90
54960;DHT22;40860;51.710;8.736;2022-12-11T09:33:39;0.50;99.90
54960;DHT22;40860;51.710;8.736;2022-12-11T09:37:42;0.50;99.90
54960;DHT22;40860;51.710;8.736;2022-12-11T09:41:50;0.50;99.90
54960;DHT22;40860;51.710;8.736;2022-12-11T09:45:54;0.50;99.90
54960;DHT22;40860;51.710;8.736;2022-12-11T09:50:04;0.60;99.90
54960;DHT22;40860;51.710;8.736;2022-12-11T09:54:11;0.60;99.90
54960;DHT22;40860;51.710;8.736;2022-12-11T09:58:21;0.60;99.90
54960;DHT22;40860;51.710;8.736;2022-12-11T10:02:36;0.60;99.90
54960;DHT22;40860;51.710;8.736;2022-12-11T10:06:47;0.60;99.90
54960;DHT22;40860;51.710;8.736;2022-12-11T10:10:58;0.60;99.90
54960;DHT22;40860;51.710;8.736;2022-12-11T10:15:25;0.60;99.90
54960;DHT22;40860;51.710;8.736;2022-12-11T10:19:31;0.60;99.90
54960;DHT22;40860;51.710;8.736;2022-12-11T10:23:41;0.60;99.90
54960;DHT22;40860;51.710;8.736;2022-12-11T10:27:45;0.60;99.90
54960;DHT22;40860;51.710;8.736;2022-12-11T10:31:50;0.60;99.90
54960;DHT22;40860;51.710;8.736;2022-12-11T10:35:56;0.60;99.90
54960;DHT22;40860;51.710;8.736;2022-12-11T10:40:01;0.50;99.90
54960;DHT22;40860;51.710;8.736;2022-12-11T10:44:14;0.60;99.90
54960;DHT22;40860;51.710;8.736;2022-12-11T10:48:18;0.60;99.90
54960;DHT22;40860;51.710;8.736;2022-12-11T10:52:23;0.60;99.90
54960;DHT22;40860;51.710;8.736;2022-12-11T10:56:30;0.60;99.90
54960;DHT22;40860;51.710;8.736;2022-12-11T11:00:35;0.60;99.90
54960;DHT22;40860;51.710;8.736;2022-12-11T11:04:41;0.60;99.90
54960;DHT22;40860;51.710;8.736;2022-12-11T11:08:47;0.60;99.90
54960;DHT22;40860;51.710;8.736;2022-12-11T11:13:00;0.60;99.90
54960;DHT22;40860;51.710;8.736;2022-12-11T11:17:03;0.60;99.90
54960;DHT22;40860;51.710;8.736;2022-12-11T11:21:15;0.60;99.90
54960;DHT22;40860;51.710;8.736;2022-12-11T11:25:19;0.50;99.90
54960;DHT22;40860;51.710;8.736;2022-12-11T11:29:28;0.50;99.90
54960;DHT22;40860;51.710;8.736;2022-12-11T11:33:34;0.50;99.90
54960;DHT22;40860;51.710;8.736;2022-12-11T11:37:39;0.60;99.90
54960;DHT22;40860;51.710;8.736;2022-12-11T11:41:47;0.60;99.90
54960;DHT22;40860;51.710;8.736;2022-12-11T11:45:56;0.60;99.90
54960;DHT22;40860;51.710;8.736;2022-12-11T11:50:05;0.60;99.90
54960;DHT22;40860;51.710;8.736;2022-12-11T11:54:19;0.60;99.90
54960;DHT22;40860;51.710;8.736;2022-12-11T11:58:30;0.60;99.90
54960;DHT22;40860;51.710;8.736;2022-12-11T12:02:40;0.60;99.90
54960;DHT22;40860;51.710;8.736;2022-12-11T12:07:03;0.60;99.90
54960;DHT22;40860;51.710;8.736;2022-12-11T12:11:16;0.60;99.90
54960;DHT22;40860;51.710;8.736;2022-12-11T12:15:30;0.60;99.90
54960;DHT22;40860;51.710;8.736;2022-12-11T12:19:48;0.60;99.90
54960;DHT22;40860;51.710;8.736;2022-12-11T12:24:10;0.60;99.90
54960;DHT22;40860;51.710;8.736;2022-12-11T12:28:23;0.60;99.90
54960;DHT22;40860;51.710;8.736;2022-12-11T12:32:39;0.50;99.90
54960;DHT22;40860;51.710;8.736;2022-12-11T12:36:54;0.50;99.90
54960;DHT22;40860;51.710;8.736;2022-12-11T12:41:05;0.50;99.90
54960;DHT22;40860;51.710;8.736;2022-12-11T12:45:24;0.50;99.90
54960;DHT22;40860;51.710;8.736;2022-12-11T12:49:37;0.50;99.90
54960;DHT22;40860;51.710;8.736;2022-12-11T12:53:47;0.50;99.90
54960;DHT22;40860;51.710;8.736;2022-12-11T12:57:54;0.50;99.90
54960;DHT22;40860;51.710;8.736;2022-12-11T13:02:00;0.50;99.90
54960;DHT22;40860;51.710;8.736;2022-12-11T13:06:07;0.50;99.90
54960;DHT22;40860;51.710;8.736;2022-12-11T13:10:25;0.50;99.90
54960;DHT22;40860;51.710;8.736;2022-12-11T13:14:30;0.50;99.90
54960;DHT22;40860;51.710;8.736;2022-12-11T13:18:35;0.50;99.90
54960;DHT22;40860;51.710;8.736;2022-12-11T13:22:48;0.60;99.90
54960;DHT22;40860;51.710;8.736;2022-12-11T13:26:53;0.60;99.90
54960;DHT22;40860;51.710;8.736;2022-12-11T13:31:05;0.60;99.90
54960;DHT22;40860;51.710;8.736;2022-12-11T13:35:14;0.60;99.90
54960;DHT22;40860;51.710;8.736;2022-12-11T13:39:22;0.60;99.90
54960;DHT22;40860;51.710;8.736;2022-12-11T13:43:28;0.60;99.90
54960;DHT22;40860;51.710;8.736;2022-12-11T13:47:35;0.60;99.90
54960;DHT22;40860;51.710;8.736;2022-12-11T13:51:38;0.60;99.90
54960;DHT22;40860;51.710;8.736;2022-12-11T13:55:42;0.70;99.90
54960;DHT22;40860;51.710;8.736;2022-12-11T13:59:49;0.60;99.90
54960;DHT22;40860;51.710;8.736;2022-12-11T14:03:55;0.70;99.90
54960;DHT22;40860;51.710;8.736;2022-12-11T14:08:03;0.70;99.90
54960;DHT22;40860;51.710;8.736;2022-12-11T14:12:15;0.70;99.90
54960;DHT22;40860;51.710;8.736;2022-12-11T14:16:22;0.70;99.90
54960;DHT22;40860;51.710;8.736;2022-12-11T14:20:27;0.70;99.90
54960;DHT22;40860;51.710;8.736;2022-12-11T14:24:31;0.70;99.90
54960;DHT22;40860;51.710;8.736;2022-12-11T14:28:36;0.70;99.90
54960;DHT22;40860;51.710;8.736;2022-12-11T14:32:42;0.70;99.90
54960;DHT22;40860;51.710;8.736;2022-12-11T14:36:47;0.70;99.90
54960;DHT22;40860;51.710;8.736;2022-12-11T14:40:53;0.70;99.90
54960;DHT22;40860;51.710;8.736;2022-12-11T14:45:04;0.70;99.90
54960;DHT22;40860;51.710;8.736;2022-12-11T14:49:17;0.70;99.90
54960;DHT22;40860;51.710;8.736;2022-12-11T14:53:24;0.70;99.90
54960;DHT22;40860;51.710;8.736;2022-12-11T14:57:29;0.70;99.90
54960;DHT22;40860;51.710;8.736;2022-12-11T15:01:34;0.60;99.90
54960;DHT22;40860;51.710;8.736;2022-12-11T15:05:48;0.60;99.90
54960;DHT22;40860;51.710;8.736;2022-12-11T15:09:51;0.60;99.90
54960;DHT22;40860;51.710;8.736;2022-12-11T15:13:56;0.60;99.90
54960;DHT22;40860;51.710;8.736;2022-12-11T15:18:01;0.60;99.90
54960;DHT22;40860;51.710;8.736;2022-12-11T15:22:11;0.60;99.90
54960;DHT22;40860;51.710;8.736;2022-12-11T15:26:32;0.50;99.90
54960;DHT22;40860;51.710;8.736;2022-12-11T15:30:36;0.60;99.90
54960;DHT22;40860;51.710;8.736;2022-12-11T15:34:42;0.50;99.90
54960;DHT22;40860;51.710;8.736;2022-12-11T15:38:47;0.50;99.90
54960;DHT22;40860;51.710;8.736;2022-12-11T15:42:50;0.50;99.90
54960;DHT22;40860;51.710;8.736;2022-12-11T15:46:55;0.40;99.90
54960;DHT22;40860;51.710;8.736;2022-12-11T15:50:58;0.40;99.90
54960;DHT22;40860;51.710;8.736;2022-12-11T15:55:04;0.40;99.90
54960;DHT22;40860;51.710;8.736;2022-12-11T15:59:09;0.40;99.90
54960;DHT22;40860;51.710;8.736;2022-12-11T16:03:13;0.40;99.90
54960;DHT22;40860;51.710;8.736;2022-12-11T16:07:18;0.40;99.90
54960;DHT22;40860;51.710;8.736;2022-12-11T16:11:23;0.40;99.90
54960;DHT22;40860;51.710;8.736;2022-12-11T16:15:26;0.40;99.90
54960;DHT22;40860;51.710;8.736;2022-12-11T16:19:29;0.40;99.90
54960;DHT22;40860;51.710;8.736;2022-12-11T16:23:32;0.40;99.90
54960;DHT22;40860;51.710;8.736;2022-12-11T16:27:36;0.40;99.90
54960;DHT22;40860;51.710;8.736;2022-12-11T16:31:39;0.40;99.90
54960;DHT22;40860;51.710;8.736;2022-12-11T16:35:45;0.40;99.90
54960;DHT22;40860;51.710;8.736;2022-12-11T16:39:52;0.40;99.90
54960;DHT22;40860;51.710;8.736;2022-12-11T16:44:00;0.40;99.90
54960;DHT22;40860;51.710;8.736;2022-12-11T16:48:04;0.40;99.90
54960;DHT22;40860;51.710;8.736;2022-12-11T16:52:07;0.40;99.90
54960;DHT22;40860;51.710;8.736;2022-12-11T16:56:11;0.40;99.90
54960;DHT22;40860;51.710;8.736;2022-12-11T17:00:16;0.40;99.90
54960;DHT22;40860;51.710;8.736;2022-12-11T17:04:19;0.40;99.90
54960;DHT22;40860;51.710;8.736;2022-12-11T17:08:22;0.40;99.90
54960;DHT22;40860;51.710;8.736;2022-12-11T17:12:26;0.40;99.90
54960;DHT22;40860;51.710;8.736;2022-12-11T17:16:30;0.40;99.90
54960;DHT22;40860;51.710;8.736;2022-12-11T17:20:38;0.40;99.90
54960;DHT22;40860;51.710;8.736;2022-12-11T17:24:42;0.40;99.90
54960;DHT22;40860;51.710;8.736;2022-12-11T17:28:47;0.30;99.90
54960;DHT22;40860;51.710;8.736;2022-12-11T17:32:52;0.30;99.90
54960;DHT22;40860;51.710;8.736;2022-12-11T17:36:55;0.30;99.90
54960;DHT22;40860;51.710;8.736;2022-12-11T17:40:58;0.30;99.90
54960;DHT22;40860;51.710;8.736;2022-12-11T17:45:05;0.30;99.90
54960;DHT22;40860;51.710;8.736;2022-12-11T17:49:13;0.30;99.90
54960;DHT22;40860;51.710;8.736;2022-12-11T17:53:18;0.30;99.90
54960;DHT22;40860;51.710;8.736;2022-12-11T17:57:22;0.30;99.90
54960;DHT22;40860;51.710;8.736;2022-12-11T18:01:25;0.30;99.90
54960;DHT22;40860;51.710;8.736;2022-12-11T18:05:29;0.30;99.90
54960;DHT22;40860;51.710;8.736;2022-12-11T18:09:33;0.30;99.90
54960;DHT22;40860;51.710;8.736;2022-12-11T18:13:36;0.30;99.90
54960;DHT22;40860;51.710;8.736;2022-12-11T18:17:44;0.30;99.90
54960;DHT22;40860;51.710;8.736;2022-12-11T18:21:49;0.30;99.90
54960;DHT22;40860;51.710;8.736;2022-12-11T18:25:56;0.30;99.90
54960;DHT22;40860;51.710;8.736;2022-12-11T18:29:59;0.30;99.90
54960;DHT22;40860;51.710;8.736;2022-12-11T18:34:02;0.30;99.90
54960;DHT22;40860;51.710;8.736;2022-12-11T18:38:09;0.40;99.90
54960;DHT22;40860;51.710;8.736;2022-12-11T18:42:13;0.40;99.90
54960;DHT22;40860;51.710;8.736;2022-12-11T18:46:36;0.40;99.90
54960;DHT22;40860;51.710;8.736;2022-12-11T18:50:43;0.40;99.90
54960;DHT22;40860;51.710;8.736;2022-12-11T18:54:56;0.40;99.90
54960;DHT22;40860;51.710;8.736;2022-12-11T18:58:59;0.30;99.90
54960;DHT22;40860;51.710;8.736;2022-12-11T19:03:04;0.40;99.90
54960;DHT22;40860;51.710;8.736;2022-12-11T19:07:13;0.30;99.90
54960;DHT22;40860;51.710;8.736;2022-12-11T19:11:20;0.30;99.90
54960;DHT22;40860;51.710;8.736;2022-12-11T19:15:26;0.40;99.90
54960;DHT22;40860;51.710;8.736;2022-12-11T19:19:35;0.30;99.90
54960;DHT22;40860;51.710;8.736;2022-12-11T19:23:38;0.30;99.90
54960;DHT22;40860;51.710;8.736;2022-12-11T19:27:45;0.30;99.90
54960;DHT22;40860;51.710;8.736;2022-12-11T19:31:50;0.30;99.90
54960;DHT22;40860;51.710;8.736;2022-12-11T19:36:00;0.30;99.90
54960;DHT22;40860;51.710;8.736;2022-12-11T19:40:04;0.30;99.90
54960;DHT22;40860;51.710;8.736;2022-12-11T19:44:09;0.40;99.90
54960;DHT22;40860;51.710;8.736;2022-12-11T19:48:12;0.30;99.90
54960;DHT22;40860;51.710;8.736;2022-12-11T19:52:15;0.30;99.90
54960;DHT22;40860;51.710;8.736;2022-12-11T19:56:18;0.30;99.90
54960;DHT22;40860;51.710;8.736;2022-12-11T20:00:23;0.30;99.90
54960;DHT22;40860;51.710;8.736;2022-12-11T20:04:26;0.30;99.90
54960;DHT22;40860;51.710;8.736;2022-12-11T20:08:29;0.30;99.90
54960;DHT22;40860;51.710;8.736;2022-12-11T20:12:47;0.30;99.90
54960;DHT22;40860;51.710;8.736;2022-12-11T20:16:52;0.30;99.90
54960;DHT22;40860;51.710;8.736;2022-12-11T20:21:16;0.20;99.90
54960;DHT22;40860;51.710;8.736;2022-12-11T20:25:20;0.30;99.90
54960;DHT22;40860;51.710;8.736;2022-12-11T20:29:24;0.30;99.90
54960;DHT22;40860;51.710;8.736;2022-12-11T20:33:28;0.30;99.90
54960;DHT22;40860;51.710;8.736;2022-12-11T20:37:32;0.30;99.90
54960;DHT22;40860;51.710;8.736;2022-12-11T20:41:35;0.30;99.90
54960;DHT22;40860;51.710;8.736;2022-12-11T20:45:38;0.30;99.90
54960;DHT22;40860;51.710;8.736;2022-12-11T20:49:42;0.30;99.90
54960;DHT22;40860;51.710;8.736;2022-12-11T20:53:45;0.30;99.90
54960;DHT22;40860;51.710;8.736;2022-12-11T20:57:48;0.30;99.90
54960;DHT22;40860;51.710;8.736;2022-12-11T21:01:51;0.30;99.90
54960;DHT22;40860;51.710;8.736;2022-12-11T21:05:55;0.30;99.90
54960;DHT22;40860;51.710;8.736;2022-12-11T21:09:58;0.30;99.90
54960;DHT22;40860;51.710;8.736;2022-12-11T21:14:01;0.30;99.90
54960;DHT22;40860;51.710;8.736;2022-12-11T21:18:04;0.20;99.90
54960;DHT22;40860;51.710;8.736;2022-12-11T21:22:09;0.20;99.90
54960;DHT22;40860;51.710;8.736;2022-12-11T21:26:19;0.20;99.90
54960;DHT22;40860;51.710;8.736;2022-12-11T21:30:22;0.20;99.90
54960;DHT22;40860;51.710;8.736;2022-12-11T21:34:26;0.20;99.90
54960;DHT22;40860;51.710;8.736;2022-12-11T21:38:30;0.20;99.90
54960;DHT22;40860;51.710;8.736;2022-12-11T21:42:33;0.20;99.90
54960;DHT22;40860;51.710;8.736;2022-12-11T21:46:36;0.20;99.90
54960;DHT22;40860;51.710;8.736;2022-12-11T21:50:40;0.20;99.90
54960;DHT22;40860;51.710;8.736;2022-12-11T21:54:46;0.20;99.90
54960;DHT22;40860;51.710;8.736;2022-12-11T21:58:51;0.20;99.90
54960;DHT22;40860;51.710;8.736;2022-12-11T22:02:54;0.20;99.90
54960;DHT22;40860;51.710;8.736;2022-12-11T22:06:57;0.20;99.90
54960;DHT22;40860;51.710;8.736;2022-12-11T22:11:02;0.20;99.90
54960;DHT22;40860;51.710;8.736;2022-12-11T22:15:07;0.20;99.90
54960;DHT22;40860;51.710;8.736;2022-12-11T22:19:11;0.20;99.90
54960;DHT22;40860;51.710;8.736;2022-12-11T22:23:14;0.20;99.90
54960;DHT22;40860;51.710;8.736;2022-12-11T22:27:18;0.20;99.90
54960;DHT22;40860;51.710;8.736;2022-12-11T22:31:25;0.20;99.90
54960;DHT22;40860;51.710;8.736;2022-12-11T22:35:28;0.20;99.90
54960;DHT22;40860;51.710;8.736;2022-12-11T22:39:31;0.20;99.90
54960;DHT22;40860;51.710;8.736;2022-12-11T22:43:36;0.20;99.90
54960;DHT22;40860;51.710;8.736;2022-12-11T22:47:39;0.20;99.90
54960;DHT22;40860;51.710;8.736;2022-12-11T22:51:42;0.20;99.90
54960;DHT22;40860;51.710;8.736;2022-12-11T22:55:45;0.20;99.90
54960;DHT22;40860;51.710;8.736;2022-12-11T22:59:49;0.20;99.90
54960;DHT22;40860;51.710;8.736;2022-12-11T23:03:53;0.20;99.90
54960;DHT22;40860;51.710;8.736;2022-12-11T23:07:57;0.20;99.90
54960;DHT22;40860;51.710;8.736;2022-12-11T23:12:00;0.10;99.90
54960;DHT22;40860;51.710;8.736;2022-12-11T23:16:04;0.10;99.90
54960;DHT22;40860;51.710;8.736;2022-12-11T23:20:08;0.10;99.90
54960;DHT22;40860;51.710;8.736;2022-12-11T23:24:11;0.10;99.90
54960;DHT22;40860;51.710;8.736;2022-12-11T23:28:14;0.10;99.90
54960;DHT22;40860;51.710;8.736;2022-12-11T23:32:18;0.10;99.90
54960;DHT22;40860;51.710;8.736;2022-12-11T23:36:22;0.10;99.90
54960;DHT22;40860;51.710;8.736;2022-12-11T23:40:25;0.10;99.90
54960;DHT22;40860;51.710;8.736;2022-12-11T23:44:28;0.10;99.90
54960;DHT22;40860;51.710;8.736;2022-12-11T23:48:32;0.10;99.90
54960;DHT22;40860;51.710;8.736;2022-12-11T23:52:35;0.10;99.90
54960;DHT22;40860;51.710;8.736;2022-12-11T23:56:38;0.10;99.90
